Time;durP1;ratioP1;P1;durP2;ratioP2;P2;SDS_P1;SDS_P2;PMS_P1;PMS_P2;Temp;Humidity;BMP_temperature;BMP_pressure;BME280_temperature;BME280_humidity;BME280_pressure;Samples;Min_cycle;Max_cycle;Signal;HPM_P1;HPM_P2
2023/11/15 00:02:26;;;;;;;;;;;10.50;99.90;;;;;;8358842;28;19951;-72
2023/11/15 00:06:28;;;;;;;;;;;10.50;99.90;;;;;;8359590;28;20305;-71
2023/11/15 00:10:31;;;;;;;;;;;10.50;99.90;;;;;;8361875;28;19978;-71
2023/11/15 00:14:33;;;;;;;;;;;10.50;99.90;;;;;;8357675;28;19924;-71
2023/11/15 00:18:35;;;;;;;;;;;10.50;99.90;;;;;;8360183;28;19980;-71
2023/11/15 00:22:36;;;;;;;;;;;10.60;99.90;;;;;;8358630;28;20426;-71
2023/11/15 00:26:38;;;;;;;;;;;10.60;99.90;;;;;;8343014;28;19925;-71
2023/11/15 00:30:40;;;;;;;;;;;10.60;99.90;;;;;;8359063;28;19924;-71
2023/11/15 00:34:42;;;;;;;;;;;10.60;99.90;;;;;;8358170;28;19925;-71
2023/11/15 00:38:43;;;;;;;;;;;10.70;99.90;;;;;;8360033;28;19932;-71
2023/11/15 00:42:45;;;;;;;;;;;10.70;99.90;;;;;;8357620;28;20223;-72
2023/11/15 00:46:47;;;;;;;;;;;10.70;99.90;;;;;;8353294;28;19940;-71
2023/11/15 00:50:49;;;;;;;;;;;10.80;99.90;;;;;;8360120;28;19974;-71
2023/11/15 00:54:50;;;;;;;;;;;10.80;99.90;;;;;;8355167;28;20958;-71
2023/11/15 01:09:17;;;;;;;;;;;10.80;99.90;;;;;;8357944;28;19963;-73
2023/11/15 01:13:19;;;;;;;;;;;10.90;99.90;;;;;;8358728;28;19986;-71
2023/11/15 01:17:21;;;;;;;;;;;10.80;99.90;;;;;;8331220;28;19924;-71
2023/11/15 01:21:23;;;;;;;;;;;10.80;99.90;;;;;;8358351;28;19931;-71
2023/11/15 01:25:30;;;;;;;;;;;10.70;99.90;;;;;;8355831;28;20230;-71
2023/11/15 01:29:32;;;;;;;;;;;10.60;99.90;;;;;;8354711;28;20015;-71
2023/11/15 01:33:34;;;;;;;;;;;10.50;99.90;;;;;;8358090;28;19925;-71
2023/11/15 01:37:36;;;;;;;;;;;10.50;99.90;;;;;;8355762;28;19940;-71
2023/11/15 01:41:37;;;;;;;;;;;10.50;99.90;;;;;;8357591;28;19937;-71
2023/11/15 01:45:39;;;;;;;;;;;10.50;99.90;;;;;;8356077;28;19925;-71
2023/11/15 01:49:41;;;;;;;;;;;10.50;99.90;;;;;;8334843;28;19979;-71
2023/11/15 01:53:42;;;;;;;;;;;10.60;99.90;;;;;;8357386;28;19936;-71
2023/11/15 01:57:45;;;;;;;;;;;10.60;99.90;;;;;;8355638;28;19925;-71
2023/11/15 02:01:47;;;;;;;;;;;10.60;99.90;;;;;;8355908;28;19942;-71
2023/11/15 02:05:51;;;;;;;;;;;10.60;99.90;;;;;;8349196;28;20281;-71
2023/11/15 02:09:52;;;;;;;;;;;10.70;99.90;;;;;;8355590;28;20769;-71
2023/11/15 02:13:55;;;;;;;;;;;10.70;99.90;;;;;;8358065;28;19928;-71
2023/11/15 02:17:57;;;;;;;;;;;10.70;99.90;;;;;;8354556;28;19925;-71
2023/11/15 02:21:59;;;;;;;;;;;10.70;99.90;;;;;;8355021;28;19975;-71
2023/11/15 02:26:01;;;;;;;;;;;10.70;99.90;;;;;;8353350;28;19959;-71
2023/11/15 02:30:05;;;;;;;;;;;10.80;99.90;;;;;;8352271;28;21317;-71
2023/11/15 02:34:06;;;;;;;;;;;10.80;99.90;;;;;;8356892;28;19925;-71
2023/11/15 02:38:08;;;;;;;;;;;10.80;99.90;;;;;;8349229;28;19929;-71
2023/11/15 02:42:10;;;;;;;;;;;10.80;99.90;;;;;;8357189;28;20402;-71
2023/11/15 02:46:17;;;;;;;;;;;10.80;99.90;;;;;;8352792;28;20368;-71
2023/11/15 02:50:19;;;;;;;;;;;10.80;99.90;;;;;;8353142;28;20120;-71
2023/11/15 02:54:21;;;;;;;;;;;10.80;99.90;;;;;;8355318;28;19974;-71
2023/11/15 02:58:22;;;;;;;;;;;10.90;99.90;;;;;;8352617;28;20608;-72
2023/11/15 03:02:24;;;;;;;;;;;10.90;99.90;;;;;;8352834;28;19984;-71
2023/11/15 03:06:26;;;;;;;;;;;10.90;99.90;;;;;;8355929;28;19932;-71
2023/11/15 03:10:27;;;;;;;;;;;10.90;99.90;;;;;;8358946;28;19932;-71
2023/11/15 03:14:30;;;;;;;;;;;10.90;99.90;;;;;;8360024;28;19929;-71
2023/11/15 03:18:32;;;;;;;;;;;10.90;99.90;;;;;;8360925;28;19970;-71
2023/11/15 03:22:33;;;;;;;;;;;10.90;99.90;;;;;;8375951;28;20375;-71
2023/11/15 03:26:35;;;;;;;;;;;10.90;99.90;;;;;;8362629;28;19928;-71
2023/11/15 03:30:37;;;;;;;;;;;10.80;99.90;;;;;;8358386;28;19925;-71
2023/11/15 03:34:42;;;;;;;;;;;10.80;99.90;;;;;;8361323;28;19928;-71
2023/11/15 03:38:44;;;;;;;;;;;10.80;99.90;;;;;;8359898;28;20340;-71
2023/11/15 03:42:46;;;;;;;;;;;10.80;99.90;;;;;;8359832;28;20253;-71
2023/11/15 03:46:48;;;;;;;;;;;10.80;99.90;;;;;;8361389;28;19925;-71
2023/11/15 03:50:50;;;;;;;;;;;10.80;99.90;;;;;;8357750;28;19928;-71
2023/11/15 03:54:52;;;;;;;;;;;10.80;99.90;;;;;;8360355;28;19925;-71
2023/11/15 03:58:54;;;;;;;;;;;10.90;99.90;;;;;;8360914;28;20273;-71
2023/11/15 04:02:55;;;;;;;;;;;10.90;99.90;;;;;;8371528;28;19924;-71
2023/11/15 04:06:57;;;;;;;;;;;10.90;99.90;;;;;;8361454;28;19946;-71
2023/11/15 04:10:59;;;;;;;;;;;10.90;99.90;;;;;;8357207;28;20429;-71
2023/11/15 04:15:03;;;;;;;;;;;10.90;99.90;;;;;;8347062;28;19940;-71
2023/11/15 04:19:05;;;;;;;;;;;10.90;99.90;;;;;;8359452;28;20265;-71
2023/11/15 04:23:06;;;;;;;;;;;10.90;99.90;;;;;;8356427;28;20384;-71
2023/11/15 04:27:08;;;;;;;;;;;11.00;99.90;;;;;;8360827;28;19979;-71
2023/11/15 04:31:10;;;;;;;;;;;11.00;99.90;;;;;;8357045;28;19986;-71
2023/11/15 04:35:12;;;;;;;;;;;11.00;99.90;;;;;;8359774;28;19925;-71
2023/11/15 04:39:13;;;;;;;;;;;11.00;99.90;;;;;;8371018;28;19929;-71
2023/11/15 04:43:16;;;;;;;;;;;11.00;99.90;;;;;;8355615;28;19936;-71
2023/11/15 04:47:18;;;;;;;;;;;11.00;99.90;;;;;;8359417;28;20368;-71
2023/11/15 04:51:20;;;;;;;;;;;11.00;99.90;;;;;;8356267;28;19933;-71
2023/11/15 04:55:21;;;;;;;;;;;11.00;99.90;;;;;;8358071;28;19983;-71
2023/11/15 04:59:23;;;;;;;;;;;11.00;99.90;;;;;;8358150;28;19978;-71
2023/11/15 05:03:25;;;;;;;;;;;11.00;99.90;;;;;;8351812;28;20257;-71
2023/11/15 05:07:26;;;;;;;;;;;11.00;99.90;;;;;;8320596;28;20365;-71
2023/11/15 05:11:28;;;;;;;;;;;11.00;99.90;;;;;;8349021;28;19929;-71
2023/11/15 05:15:30;;;;;;;;;;;10.90;99.90;;;;;;8353339;28;20304;-71
2023/11/15 05:19:34;;;;;;;;;;;11.00;99.90;;;;;;8355817;28;20335;-70
2023/11/15 05:23:35;;;;;;;;;;;11.00;99.90;;;;;;8353065;28;20338;-71
2023/11/15 05:27:37;;;;;;;;;;;11.00;99.90;;;;;;8368320;28;19925;-70
2023/11/15 05:31:39;;;;;;;;;;;11.00;99.90;;;;;;8352752;28;19979;-71
2023/11/15 05:35:40;;;;;;;;;;;11.00;99.90;;;;;;8356446;28;19978;-71
2023/11/15 05:39:43;;;;;;;;;;;11.10;99.90;;;;;;8353596;28;20114;-72
2023/11/15 05:43:45;;;;;;;;;;;11.00;99.90;;;;;;8348514;28;21802;-70
2023/11/15 05:47:47;;;;;;;;;;;11.00;99.90;;;;;;8344046;28;19925;-70
2023/11/15 05:51:48;;;;;;;;;;;11.00;99.90;;;;;;8346148;28;20303;-71
2023/11/15 05:55:51;;;;;;;;;;;11.00;99.90;;;;;;8347467;28;20360;-71
2023/11/15 05:59:52;;;;;;;;;;;10.90;99.90;;;;;;8350304;28;20380;-71
2023/11/15 06:03:54;;;;;;;;;;;10.90;99.90;;;;;;8345526;28;19932;-71
2023/11/15 06:07:56;;;;;;;;;;;10.80;99.90;;;;;;8353397;28;20281;-71
2023/11/15 06:11:57;;;;;;;;;;;10.80;99.90;;;;;;8350116;28;20348;-71
2023/11/15 06:15:59;;;;;;;;;;;10.80;99.90;;;;;;8350076;28;19931;-71
2023/11/15 06:20:01;;;;;;;;;;;10.80;99.90;;;;;;8355073;28;20491;-70
2023/11/15 06:24:07;;;;;;;;;;;10.80;99.90;;;;;;8352623;28;20309;-71
2023/11/15 06:28:09;;;;;;;;;;;10.80;99.90;;;;;;8356065;28;20265;-71
2023/11/15 06:32:10;;;;;;;;;;;10.70;99.90;;;;;;8356623;28;19986;-71
2023/11/15 06:36:12;;;;;;;;;;;10.70;99.90;;;;;;8357099;28;19924;-71
2023/11/15 06:40:15;;;;;;;;;;;10.70;99.90;;;;;;8353666;28;20268;-71
2023/11/15 06:44:16;;;;;;;;;;;10.70;99.90;;;;;;8354044;28;19983;-70
2023/11/15 06:48:18;;;;;;;;;;;10.70;99.90;;;;;;8355550;28;19932;-70
2023/11/15 06:52:20;;;;;;;;;;;10.60;99.90;;;;;;8355174;28;20002;-71
2023/11/15 06:56:22;;;;;;;;;;;10.60;99.90;;;;;;8356471;28;19936;-71
2023/11/15 07:00:26;;;;;;;;;;;10.50;99.90;;;;;;8354236;28;21586;-70
2023/11/15 07:04:29;;;;;;;;;;;10.50;99.90;;;;;;8354630;28;20395;-72
2023/11/15 07:08:31;;;;;;;;;;;10.40;99.90;;;;;;8355247;28;20384;-71
2023/11/15 07:12:36;;;;;;;;;;;10.40;99.90;;;;;;8353984;28;19951;-71
2023/11/15 07:16:44;;;;;;;;;;;10.40;99.90;;;;;;8341736;28;19937;-71
2023/11/15 07:20:46;;;;;;;;;;;10.40;99.90;;;;;;8367596;28;19929;-71
2023/11/15 07:24:51;;;;;;;;;;;10.40;99.90;;;;;;8368537;28;19993;-71
2023/11/15 07:28:55;;;;;;;;;;;10.40;99.90;;;;;;8357718;28;19925;-71
2023/11/15 07:32:57;;;;;;;;;;;10.40;99.90;;;;;;8355948;28;20447;-70
2023/11/15 07:36:59;;;;;;;;;;;10.40;99.90;;;;;;8353093;28;19979;-70
2023/11/15 07:41:01;;;;;;;;;;;10.30;99.90;;;;;;8355494;28;19979;-71
2023/11/15 07:45:03;;;;;;;;;;;10.30;99.90;;;;;;8370118;28;20430;-70
2023/11/15 07:49:07;;;;;;;;;;;10.30;99.90;;;;;;8355289;28;20279;-71
2023/11/15 07:53:09;;;;;;;;;;;10.30;99.90;;;;;;8352768;28;20156;-71
2023/11/15 07:57:11;;;;;;;;;;;10.30;99.90;;;;;;8361619;28;19936;-71
2023/11/15 08:01:13;;;;;;;;;;;10.30;99.90;;;;;;8360989;28;19978;-71
2023/11/15 08:05:15;;;;;;;;;;;10.40;99.90;;;;;;8360912;28;20376;-71
2023/11/15 08:09:32;;;;;;;;;;;10.40;99.90;;;;;;8361239;28;19931;-71
2023/11/15 08:13:33;;;;;;;;;;;10.40;99.90;;;;;;8359984;28;19925;-71
2023/11/15 08:17:36;;;;;;;;;;;10.50;99.90;;;;;;8359458;28;19936;-70
2023/11/15 08:21:38;;;;;;;;;;;10.50;99.90;;;;;;8359712;28;19929;-70
2023/11/15 08:25:48;;;;;;;;;;;10.60;99.90;;;;;;8361113;28;19932;-70
2023/11/15 08:29:49;;;;;;;;;;;10.60;99.90;;;;;;8354454;28;20837;-71
2023/11/15 08:33:53;;;;;;;;;;;10.70;99.90;;;;;;8355790;28;19960;-71
2023/11/15 08:37:55;;;;;;;;;;;10.70;99.90;;;;;;8362081;28;19963;-70
2023/11/15 08:41:56;;;;;;;;;;;10.80;99.90;;;;;;8357517;28;19974;-70
2023/11/15 08:46:01;;;;;;;;;;;10.80;99.90;;;;;;8357447;28;19968;-70
2023/11/15 08:50:04;;;;;;;;;;;10.90;99.90;;;;;;8357564;28;20431;-71
2023/11/15 08:54:07;;;;;;;;;;;11.00;99.90;;;;;;8356518;28;19925;-70
2023/11/15 08:58:09;;;;;;;;;;;11.10;99.90;;;;;;8358532;28;20342;-71
2023/11/15 09:02:11;;;;;;;;;;;11.20;99.90;;;;;;8356870;28;19971;-71
2023/11/15 09:06:14;;;;;;;;;;;11.40;99.90;;;;;;8357276;28;20300;-71
2023/11/15 09:10:16;;;;;;;;;;;11.50;99.90;;;;;;8356709;28;19925;-70
2023/11/15 09:14:18;;;;;;;;;;;11.60;99.90;;;;;;8356047;28;19951;-71
2023/11/15 09:18:23;;;;;;;;;;;11.50;99.90;;;;;;8374919;28;19932;-71
2023/11/15 09:22:25;;;;;;;;;;;11.30;99.90;;;;;;8355849;28;19929;-70
2023/11/15 09:26:27;;;;;;;;;;;11.10;99.90;;;;;;8356411;28;20317;-70
2023/11/15 09:30:31;;;;;;;;;;;11.10;99.90;;;;;;8356541;28;19929;-71
2023/11/15 09:34:33;;;;;;;;;;;11.20;99.90;;;;;;8337959;28;19925;-71
2023/11/15 09:43:44;;;;;;;;;;;11.60;99.90;;;;;;8357762;28;19970;-70
2023/11/15 09:47:46;;;;;;;;;;;11.80;99.90;;;;;;8357036;28;19925;-70
2023/11/15 09:51:48;;;;;;;;;;;12.00;99.90;;;;;;8350358;28;20451;-70
2023/11/15 09:55:51;;;;;;;;;;;12.00;99.90;;;;;;8355078;28;19933;-71
2023/11/15 09:59:53;;;;;;;;;;;12.20;99.90;;;;;;8357506;28;19925;-71
2023/11/15 10:04:06;;;;;;;;;;;12.30;99.90;;;;;;8355277;28;20505;-71
2023/11/15 10:08:11;;;;;;;;;;;12.50;99.90;;;;;;8352643;28;19936;-71
2023/11/15 10:12:13;;;;;;;;;;;12.70;99.90;;;;;;8338795;28;20265;-71
2023/11/15 10:16:22;;;;;;;;;;;12.70;99.90;;;;;;8355969;28;19932;-71
2023/11/15 10:20:25;;;;;;;;;;;12.80;99.90;;;;;;8358319;28;19958;-71
2023/11/15 10:24:30;;;;;;;;;;;12.80;99.90;;;;;;8356473;28;19929;-71
2023/11/15 10:28:33;;;;;;;;;;;13.00;99.90;;;;;;8349311;28;19931;-70
2023/11/15 10:32:37;;;;;;;;;;;13.40;99.90;;;;;;8356645;28;20376;-71
2023/11/15 10:36:39;;;;;;;;;;;13.70;99.90;;;;;;8356772;28;19924;-71
2023/11/15 10:40:41;;;;;;;;;;;14.00;99.90;;;;;;8357346;28;19933;-71
2023/11/15 10:44:49;;;;;;;;;;;14.30;99.90;;;;;;8356307;28;19979;-71
2023/11/15 10:48:51;;;;;;;;;;;14.30;99.90;;;;;;8352448;28;19967;-70
2023/11/15 10:52:53;;;;;;;;;;;14.40;99.90;;;;;;8355669;28;19952;-70
2023/11/15 10:56:56;;;;;;;;;;;14.50;99.90;;;;;;8339095;28;20640;-70
2023/11/15 11:00:58;;;;;;;;;;;14.50;99.90;;;;;;8351779;28;19975;-70
2023/11/15 11:05:00;;;;;;;;;;;14.50;99.90;;;;;;8357587;28;19929;-70
2023/11/15 11:09:11;;;;;;;;;;;14.50;99.90;;;;;;8353786;28;19976;-70
2023/11/15 11:13:22;;;;;;;;;;;14.40;99.90;;;;;;8358148;28;20329;-70
2023/11/15 11:17:32;;;;;;;;;;;14.20;99.90;;;;;;8354850;28;19950;-70
2023/11/15 11:21:52;;;;;;;;;;;13.90;99.90;;;;;;8353195;28;19925;-70
2023/11/15 11:26:13;;;;;;;;;;;13.60;99.90;;;;;;8357431;28;19925;-71
2023/11/15 11:30:17;;;;;;;;;;;13.40;99.90;;;;;;8356661;28;19924;-70
2023/11/15 11:34:24;;;;;;;;;;;13.10;99.90;;;;;;8362760;28;19931;-70
2023/11/15 11:38:41;;;;;;;;;;;12.90;99.90;;;;;;8354719;28;19978;-71
2023/11/15 11:42:44;;;;;;;;;;;12.90;99.90;;;;;;8360502;28;19929;-70
2023/11/15 11:47:02;;;;;;;;;;;13.30;99.90;;;;;;8363085;28;20269;-70
2023/11/15 11:51:05;;;;;;;;;;;13.80;99.90;;;;;;8339709;28;19940;-70
2023/11/15 11:55:08;;;;;;;;;;;13.80;99.90;;;;;;8359317;28;19937;-70
2023/11/15 11:59:12;;;;;;;;;;;13.40;99.90;;;;;;8359580;28;19987;-70
2023/11/15 12:03:14;;;;;;;;;;;13.10;99.90;;;;;;8357342;28;20287;-71
2023/11/15 12:07:19;;;;;;;;;;;12.90;99.90;;;;;;8359589;28;19925;-70
2023/11/15 12:11:22;;;;;;;;;;;12.70;99.90;;;;;;8356972;28;21774;-70
2023/11/15 12:15:24;;;;;;;;;;;12.50;99.90;;;;;;8358371;28;20253;-70
2023/11/15 12:19:39;;;;;;;;;;;12.40;99.90;;;;;;8358182;28;20023;-71
2023/11/15 12:23:40;;;;;;;;;;;12.40;99.90;;;;;;8351310;28;19933;-70
2023/11/15 12:27:43;;;;;;;;;;;12.40;99.90;;;;;;8357218;28;19933;-70
2023/11/15 12:31:46;;;;;;;;;;;12.40;99.90;;;;;;8359798;28;19979;-70
2023/11/15 12:35:50;;;;;;;;;;;12.50;99.90;;;;;;8357130;28;19925;-71
2023/11/15 12:39:51;;;;;;;;;;;12.60;99.90;;;;;;8340570;28;19929;-70
2023/11/15 12:44:00;;;;;;;;;;;12.80;99.90;;;;;;8355875;28;19925;-70
2023/11/15 12:48:03;;;;;;;;;;;13.30;99.90;;;;;;8356488;28;19983;-70
2023/11/15 12:52:05;;;;;;;;;;;13.90;99.90;;;;;;8355402;28;19972;-71
2023/11/15 12:56:14;;;;;;;;;;;14.30;99.90;;;;;;8366335;28;19925;-70
2023/11/15 13:00:28;;;;;;;;;;;14.50;99.90;;;;;;8358701;28;19925;-70
2023/11/15 13:04:44;;;;;;;;;;;14.60;99.90;;;;;;8355181;28;19932;-70
2023/11/15 13:08:46;;;;;;;;;;;14.50;99.90;;;;;;8359058;28;19931;-70
2023/11/15 13:12:50;;;;;;;;;;;13.90;99.90;;;;;;8355595;28;19932;-70
2023/11/15 13:16:51;;;;;;;;;;;13.40;99.90;;;;;;8351040;28;19925;-70
2023/11/15 13:20:57;;;;;;;;;;;13.00;99.90;;;;;;8357996;28;19925;-70
2023/11/15 13:24:59;;;;;;;;;;;12.80;99.90;;;;;;8354998;28;20300;-70
2023/11/15 13:29:02;;;;;;;;;;;12.60;99.90;;;;;;8356110;28;20280;-70
2023/11/15 13:33:04;;;;;;;;;;;12.50;99.90;;;;;;8356029;28;19970;-70
2023/11/15 13:37:06;;;;;;;;;;;12.40;99.90;;;;;;8355458;28;20402;-70
2023/11/15 13:41:10;;;;;;;;;;;12.40;99.90;;;;;;8355304;28;19925;-70
2023/11/15 13:45:13;;;;;;;;;;;12.50;99.90;;;;;;8355790;28;19925;-70
2023/11/15 13:49:15;;;;;;;;;;;12.60;99.90;;;;;;8354766;28;19929;-70
2023/11/15 13:53:18;;;;;;;;;;;12.70;99.90;;;;;;8351906;28;19936;-70
2023/11/15 13:57:19;;;;;;;;;;;12.70;99.90;;;;;;8347484;28;19929;-70
2023/11/15 14:01:21;;;;;;;;;;;12.60;99.90;;;;;;8350279;28;20493;-71
2023/11/15 14:05:23;;;;;;;;;;;12.50;99.90;;;;;;8364442;28;20423;-70
2023/11/15 14:09:26;;;;;;;;;;;12.40;99.90;;;;;;8351652;28;19936;-70
2023/11/15 14:13:28;;;;;;;;;;;12.40;99.90;;;;;;8348590;28;19925;-70
2023/11/15 14:17:30;;;;;;;;;;;12.30;99.90;;;;;;8349625;28;19928;-69
2023/11/15 14:21:33;;;;;;;;;;;12.20;99.90;;;;;;8351782;28;20423;-70
2023/11/15 14:25:35;;;;;;;;;;;12.10;99.90;;;;;;8356442;28;19936;-70
2023/11/15 14:29:36;;;;;;;;;;;12.10;99.90;;;;;;8348644;28;20300;-70
2023/11/15 14:33:38;;;;;;;;;;;12.00;99.90;;;;;;8351016;28;19924;-71
2023/11/15 14:37:42;;;;;;;;;;;12.10;99.90;;;;;;8347602;28;19991;-70
2023/11/15 14:41:45;;;;;;;;;;;12.80;99.90;;;;;;8347431;28;19925;-71
2023/11/15 14:45:47;;;;;;;;;;;13.10;99.90;;;;;;8346683;28;19962;-70
2023/11/15 14:49:48;;;;;;;;;;;13.20;99.90;;;;;;8352521;28;21482;-70
2023/11/15 14:53:55;;;;;;;;;;;13.10;99.90;;;;;;8355214;28;19929;-71
2023/11/15 14:57:57;;;;;;;;;;;13.20;99.90;;;;;;8356932;28;19932;-70
2023/11/15 15:01:59;;;;;;;;;;;13.30;99.90;;;;;;8353781;28;19928;-70
2023/11/15 15:06:00;;;;;;;;;;;13.30;99.90;;;;;;8335376;28;20299;-70
2023/11/15 15:10:02;;;;;;;;;;;13.20;99.90;;;;;;8340760;28;20044;-70
2023/11/15 15:14:05;;;;;;;;;;;12.90;99.90;;;;;;8332593;28;19935;-70
2023/11/15 15:18:07;;;;;;;;;;;12.90;99.90;;;;;;8342573;28;19948;-70
2023/11/15 15:22:16;;;;;;;;;;;12.70;99.90;;;;;;8348346;28;19925;-70
2023/11/15 15:26:18;;;;;;;;;;;12.50;99.90;;;;;;8346182;28;19925;-70
2023/11/15 15:30:32;;;;;;;;;;;12.30;99.90;;;;;;8346463;28;19931;-70
2023/11/15 15:34:33;;;;;;;;;;;12.10;99.90;;;;;;8352055;28;19925;-70
2023/11/15 15:38:35;;;;;;;;;;;11.90;99.90;;;;;;8352563;28;19936;-70
2023/11/15 15:42:38;;;;;;;;;;;11.70;99.90;;;;;;8360035;28;20357;-70
2023/11/15 15:46:39;;;;;;;;;;;11.60;99.90;;;;;;8356259;28;20273;-70
2023/11/15 15:50:42;;;;;;;;;;;11.50;99.90;;;;;;8356143;28;19924;-70
2023/11/15 15:54:44;;;;;;;;;;;11.50;99.90;;;;;;8346618;28;19936;-70
2023/11/15 15:58:46;;;;;;;;;;;11.40;99.90;;;;;;8356403;28;19932;-70
2023/11/15 16:02:49;;;;;;;;;;;11.30;99.90;;;;;;8352913;28;19933;-70
2023/11/15 16:06:51;;;;;;;;;;;11.30;99.90;;;;;;8357798;28;19929;-70
2023/11/15 16:10:53;;;;;;;;;;;11.20;99.90;;;;;;8358361;28;19932;-70
2023/11/15 16:14:57;;;;;;;;;;;11.10;99.90;;;;;;8343901;28;19933;-70
2023/11/15 16:19:00;;;;;;;;;;;11.00;99.90;;;;;;8343243;28;19932;-70
2023/11/15 16:23:02;;;;;;;;;;;11.00;99.90;;;;;;8337852;28;19980;-71
2023/11/15 16:27:05;;;;;;;;;;;10.90;99.90;;;;;;8350044;28;19925;-70
2023/11/15 16:31:07;;;;;;;;;;;10.90;99.90;;;;;;8356971;28;20406;-70
2023/11/15 16:35:09;;;;;;;;;;;10.90;99.90;;;;;;8352550;28;21370;-70
2023/11/15 16:39:11;;;;;;;;;;;10.90;99.90;;;;;;8355622;28;19943;-70
2023/11/15 16:43:13;;;;;;;;;;;10.90;99.90;;;;;;8327508;28;19925;-70
2023/11/15 16:47:15;;;;;;;;;;;10.90;99.90;;;;;;8324729;28;19928;-70
2023/11/15 16:51:17;;;;;;;;;;;10.80;99.90;;;;;;8326882;28;19936;-70
2023/11/15 16:55:18;;;;;;;;;;;10.80;99.90;;;;;;8324588;28;20336;-70
2023/11/15 16:59:20;;;;;;;;;;;10.80;99.90;;;;;;8328265;28;19931;-70
2023/11/15 17:03:22;;;;;;;;;;;10.70;99.90;;;;;;8328903;28;19932;-70
2023/11/15 17:07:25;;;;;;;;;;;10.70;99.90;;;;;;8333398;28;20039;-70
2023/11/15 17:11:26;;;;;;;;;;;10.70;99.90;;;;;;8328778;28;19932;-70
2023/11/15 17:15:31;;;;;;;;;;;10.60;99.90;;;;;;8326109;28;19933;-70
2023/11/15 17:19:33;;;;;;;;;;;10.60;99.90;;;;;;8327256;28;19943;-70
2023/11/15 17:23:35;;;;;;;;;;;10.50;99.90;;;;;;8325108;28;19933;-70
2023/11/15 17:27:37;;;;;;;;;;;10.40;99.90;;;;;;8324339;28;19947;-70
2023/11/15 17:31:39;;;;;;;;;;;10.30;99.90;;;;;;8323061;28;19933;-70
2023/11/15 17:35:41;;;;;;;;;;;10.30;99.90;;;;;;8325752;28;20419;-70
2023/11/15 17:39:43;;;;;;;;;;;10.20;99.90;;;;;;8329880;28;19968;-70
2023/11/15 17:43:45;;;;;;;;;;;10.10;99.90;;;;;;8328638;28;19951;-70
2023/11/15 17:47:47;;;;;;;;;;;10.10;99.90;;;;;;8325449;28;20316;-70
2023/11/15 17:51:49;;;;;;;;;;;10.00;99.90;;;;;;8323936;28;20016;-70
2023/11/15 17:55:51;;;;;;;;;;;10.00;99.90;;;;;;8323124;28;20340;-70
2023/11/15 17:59:52;;;;;;;;;;;10.00;99.90;;;;;;8322829;28;19929;-70
2023/11/15 18:03:54;;;;;;;;;;;10.00;99.90;;;;;;8324454;28;19925;-70
2023/11/15 18:07:56;;;;;;;;;;;10.10;99.90;;;;;;8337648;28;19944;-70
2023/11/15 18:11:57;;;;;;;;;;;10.10;99.90;;;;;;8330324;28;20057;-70
2023/11/15 18:15:59;;;;;;;;;;;10.10;99.90;;;;;;8327079;28;19972;-70
2023/11/15 18:20:06;;;;;;;;;;;10.10;99.90;;;;;;8340459;28;19932;-70
2023/11/15 18:24:09;;;;;;;;;;;10.20;99.90;;;;;;8329005;28;19924;-70
2023/11/15 18:28:12;;;;;;;;;;;10.20;99.90;;;;;;8336071;28;19925;-71
2023/11/15 18:47:26;;;;;;;;;;;10.00;99.90;;;;;;8326934;28;20418;-70
2023/11/15 18:51:30;;;;;;;;;;;9.90;99.90;;;;;;8332651;28;19929;-70
2023/11/15 18:55:33;;;;;;;;;;;9.90;99.90;;;;;;8330990;28;19933;-70
2023/11/15 18:59:35;;;;;;;;;;;9.90;99.90;;;;;;8335494;28;20379;-70
2023/11/15 19:03:38;;;;;;;;;;;9.90;99.90;;;;;;8321194;28;19933;-69
2023/11/15 19:07:40;;;;;;;;;;;9.90;99.90;;;;;;8304780;28;19986;-70
2023/11/15 19:11:42;;;;;;;;;;;9.90;99.90;;;;;;8321899;28;20052;-70
2023/11/15 19:15:45;;;;;;;;;;;10.00;99.90;;;;;;8328854;28;19929;-70
2023/11/15 19:19:46;;;;;;;;;;;10.00;99.90;;;;;;8332725;28;19932;-69
2023/11/15 19:23:48;;;;;;;;;;;10.00;99.90;;;;;;8345059;28;20327;-69
2023/11/15 19:27:50;;;;;;;;;;;10.00;99.90;;;;;;8327516;28;19932;-70
2023/11/15 19:31:52;;;;;;;;;;;10.00;99.90;;;;;;8323783;28;19926;-69
2023/11/15 19:35:54;;;;;;;;;;;10.00;99.90;;;;;;8323870;28;19932;-70
2023/11/15 19:40:00;;;;;;;;;;;10.00;99.90;;;;;;8323491;28;19976;-70
2023/11/15 19:44:06;;;;;;;;;;;10.10;99.90;;;;;;8341178;28;20316;-70
2023/11/15 19:48:08;;;;;;;;;;;10.10;99.90;;;;;;8315193;28;19931;-70
2023/11/15 19:52:11;;;;;;;;;;;10.10;99.90;;;;;;8325976;28;20032;-70
2023/11/15 19:56:13;;;;;;;;;;;10.10;99.90;;;;;;8327731;28;19936;-70
2023/11/15 20:00:16;;;;;;;;;;;10.10;99.90;;;;;;8328005;28;19925;-70
2023/11/15 20:04:19;;;;;;;;;;;10.10;99.90;;;;;;8330623;28;19932;-70
2023/11/15 20:08:21;;;;;;;;;;;10.10;99.90;;;;;;8331119;28;19975;-69
2023/11/15 20:12:23;;;;;;;;;;;10.10;99.90;;;;;;8334589;28;19952;-69
2023/11/15 20:16:26;;;;;;;;;;;10.10;99.90;;;;;;8326059;28;19933;-70
2023/11/15 20:20:28;;;;;;;;;;;10.20;99.90;;;;;;8323061;28;20300;-70
2023/11/15 20:24:30;;;;;;;;;;;10.10;99.90;;;;;;8326976;28;20052;-70
2023/11/15 20:28:32;;;;;;;;;;;10.10;99.90;;;;;;8325118;28;19925;-70
2023/11/15 20:32:36;;;;;;;;;;;10.00;99.90;;;;;;8324459;28;20413;-70
2023/11/15 20:36:38;;;;;;;;;;;10.00;99.90;;;;;;8326057;28;19937;-70
2023/11/15 20:40:40;;;;;;;;;;;10.00;99.90;;;;;;8326502;28;20032;-70
2023/11/15 20:44:42;;;;;;;;;;;10.00;99.90;;;;;;8322713;28;20299;-70
2023/11/15 20:48:43;;;;;;;;;;;10.10;99.90;;;;;;8325147;28;19987;-70
2023/11/15 20:52:47;;;;;;;;;;;10.10;99.90;;;;;;8324619;28;20312;-70
2023/11/15 20:56:48;;;;;;;;;;;10.10;99.90;;;;;;8325536;28;20502;-70
2023/11/15 21:00:50;;;;;;;;;;;10.10;99.90;;;;;;8327830;28;19952;-70
2023/11/15 21:04:52;;;;;;;;;;;10.10;99.90;;;;;;8329248;28;20296;-70
2023/11/15 21:08:53;;;;;;;;;;;10.10;99.90;;;;;;8333297;28;19971;-70
2023/11/15 21:12:55;;;;;;;;;;;10.10;99.90;;;;;;8325613;28;19971;-71
2023/11/15 21:16:57;;;;;;;;;;;10.20;99.90;;;;;;8326482;28;20120;-70
2023/11/15 21:20:59;;;;;;;;;;;10.20;99.90;;;;;;8322902;28;20580;-70
2023/11/15 21:25:00;;;;;;;;;;;10.20;99.90;;;;;;8322828;28;20016;-70
2023/11/15 21:29:08;;;;;;;;;;;10.20;99.90;;;;;;8328086;28;19982;-70
2023/11/15 21:33:10;;;;;;;;;;;10.20;99.90;;;;;;8322550;28;19933;-70
2023/11/15 21:37:13;;;;;;;;;;;10.20;99.90;;;;;;8324004;28;19925;-71
2023/11/15 21:41:19;;;;;;;;;;;10.20;99.90;;;;;;8323645;28;20003;-70
2023/11/15 21:45:21;;;;;;;;;;;10.20;99.90;;;;;;8324551;28;19973;-70
2023/11/15 21:49:22;;;;;;;;;;;10.10;99.90;;;;;;8327264;28;19956;-70
2023/11/15 21:53:24;;;;;;;;;;;10.10;99.90;;;;;;8322401;28;19931;-70
2023/11/15 21:57:26;;;;;;;;;;;10.10;99.90;;;;;;8300054;28;20249;-70
2023/11/15 22:01:27;;;;;;;;;;;10.10;99.90;;;;;;8328808;28;19925;-70
2023/11/15 22:05:29;;;;;;;;;;;10.10;99.90;;;;;;8351305;28;19940;-71
2023/11/15 22:09:31;;;;;;;;;;;10.10;99.90;;;;;;8357409;28;20289;-70
2023/11/15 22:13:33;;;;;;;;;;;10.10;99.90;;;;;;8355293;28;19929;-70
2023/11/15 22:17:36;;;;;;;;;;;10.10;99.90;;;;;;8347428;28;19936;-70
2023/11/15 22:21:38;;;;;;;;;;;10.10;99.90;;;;;;8353059;28;19925;-70
2023/11/15 22:25:40;;;;;;;;;;;10.20;99.90;;;;;;8354603;28;19925;-70
2023/11/15 22:29:42;;;;;;;;;;;10.20;99.90;;;;;;8351959;28;19925;-70
2023/11/15 22:33:43;;;;;;;;;;;10.20;99.90;;;;;;8342548;28;19955;-70
2023/11/15 22:37:45;;;;;;;;;;;10.20;99.90;;;;;;8338763;28;20023;-70
2023/11/15 22:41:47;;;;;;;;;;;10.20;99.90;;;;;;8358023;28;19925;-70
2023/11/15 22:45:50;;;;;;;;;;;10.20;99.90;;;;;;8353128;28;19931;-70
2023/11/15 22:49:52;;;;;;;;;;;10.20;99.90;;;;;;8355376;28;20019;-69
2023/11/15 22:53:53;;;;;;;;;;;10.20;99.90;;;;;;8352747;28;20383;-70
2023/11/15 22:57:55;;;;;;;;;;;10.30;99.90;;;;;;8355536;28;19969;-70
2023/11/15 23:01:57;;;;;;;;;;;10.30;99.90;;;;;;8364896;28;19925;-70
2023/11/15 23:05:59;;;;;;;;;;;10.40;99.90;;;;;;8356944;28;19941;-70
2023/11/15 23:10:00;;;;;;;;;;;10.40;99.90;;;;;;8352138;28;19933;-70
2023/11/15 23:14:05;;;;;;;;;;;10.40;99.90;;;;;;8350093;28;19932;-70
2023/11/15 23:18:09;;;;;;;;;;;10.40;99.90;;;;;;8347419;28;19947;-70
2023/11/15 23:22:11;;;;;;;;;;;10.40;99.90;;;;;;8350279;28;19924;-70
2023/11/15 23:26:13;;;;;;;;;;;10.40;99.90;;;;;;8358033;28;20376;-70
2023/11/15 23:30:16;;;;;;;;;;;10.40;99.90;;;;;;8359003;28;19933;-70
2023/11/15 23:34:18;;;;;;;;;;;10.40;99.90;;;;;;8363021;28;19931;-70
2023/11/15 23:38:19;;;;;;;;;;;10.40;99.90;;;;;;8361140;28;20498;-70
2023/11/15 23:42:21;;;;;;;;;;;10.40;99.90;;;;;;8361074;28;19977;-70
2023/11/15 23:46:23;;;;;;;;;;;10.40;99.90;;;;;;8360190;28;19929;-70
2023/11/15 23:50:25;;;;;;;;;;;10.40;99.90;;;;;;8352324;28;19929;-70
2023/11/15 23:54:28;;;;;;;;;;;10.40;99.90;;;;;;8359383;28;19925;-70
2023/11/15 23:58:30;;;;;;;;;;;10.40;99.90;;;;;;8358607;28;19925;-70
